createdAt,value
2018-04-09T00:03:29.804Z,9.1
2018-04-09T00:08:28.806Z,9.1
2018-04-09T00:13:41.868Z,9.1
2018-04-09T00:18:39.851Z,9
2018-04-09T00:23:40.795Z,8.9
2018-04-09T00:28:42.802Z,8.9
2018-04-09T00:33:42.768Z,8.9
2018-04-09T00:38:42.772Z,8.7
2018-04-09T00:43:51.784Z,8.6
2018-04-09T00:48:48.795Z,8.5
2018-04-09T00:53:49.703Z,8.5
2018-04-09T00:58:51.707Z,8.4
2018-04-09T01:03:51.668Z,8.3
2018-04-09T01:08:51.653Z,8.3
2018-04-09T01:13:53.365Z,8.2
2018-04-09T01:18:56.646Z,8.1
2018-04-09T01:23:58.247Z,7.9
2018-04-09T01:28:56.623Z,7.7
2018-04-09T01:33:57.559Z,7.8
2018-04-09T01:38:56.559Z,7.8
2018-04-09T01:43:56.504Z,7.6
2018-04-09T01:49:05.566Z,7.6
2018-04-09T01:54:04.525Z,7.4
2018-04-09T01:59:05.484Z,7.5
2018-04-09T02:04:06.476Z,7.5
2018-04-09T02:09:06.470Z,7.3
2018-04-09T02:14:06.427Z,7.3
2018-04-09T02:19:18.544Z,7.3
2018-04-09T02:24:18.480Z,7.1
2018-04-09T02:29:20.468Z,7.1
2018-04-09T02:34:18.456Z,6.7
2018-04-09T02:39:19.391Z,6.9
2018-04-09T02:44:18.413Z,6.9
2018-04-09T02:49:34.506Z,6.8
2018-04-09T02:54:34.475Z,6.8
2018-04-09T02:59:34.482Z,6.7
2018-04-09T03:04:35.427Z,6.8
2018-04-09T03:09:35.396Z,6.6
2018-04-09T03:14:35.402Z,6.7
2018-04-09T03:19:48.442Z,6.5
2018-04-09T03:24:47.432Z,6.4
2018-04-09T03:29:47.394Z,6.4
2018-04-09T03:34:49.370Z,6.4
2018-04-09T03:39:47.366Z,6.2
2018-04-09T03:44:47.298Z,6.1
2018-04-09T03:49:58.402Z,6
2018-04-09T03:55:01.368Z,6.1
2018-04-09T03:59:58.324Z,6.1
2018-04-09T04:05:06.353Z,6.1
2018-04-09T04:10:04.343Z,5.9
2018-04-09T04:15:05.301Z,5.6
2018-04-09T04:20:15.020Z,5.7
2018-04-09T04:25:16.338Z,5.7
2018-04-09T04:30:15.342Z,5.8
2018-04-09T04:35:16.276Z,5.7
2018-04-09T04:40:15.288Z,5.7
2018-04-09T04:45:16.233Z,5.7
2018-04-09T04:50:31.367Z,5.7
2018-04-09T04:55:30.352Z,5.8
2018-04-09T05:00:30.326Z,5.8
2018-04-09T05:05:31.279Z,5.9
2018-04-09T05:10:30.268Z,5.9
2018-04-09T05:15:32.205Z,6.2
2018-04-09T05:20:30.217Z,6.2
2018-04-09T05:25:38.232Z,6.5
2018-04-09T05:30:38.173Z,6.7
2018-04-09T05:35:37.197Z,6.8
2018-04-09T05:40:45.204Z,7.2
2018-04-09T05:45:44.158Z,7.6
2018-04-09T05:50:45.134Z,7.9
2018-04-09T05:55:57.290Z,8.2
2018-04-09T06:00:57.225Z,8.6
2018-04-09T06:05:57.230Z,8.8
2018-04-09T06:11:02.210Z,9.1
2018-04-09T06:16:01.256Z,9.2
2018-04-09T06:21:21.345Z,9.6
2018-04-09T06:26:19.294Z,10.1
2018-04-09T06:31:21.268Z,10.4
2018-04-09T06:36:23.254Z,10.5
2018-04-09T06:41:26.246Z,10.7
2018-04-09T06:46:23.213Z,11
2018-04-09T06:51:34.301Z,11.6
2018-04-09T06:56:35.284Z,11.9
2018-04-09T07:01:37.248Z,12.3
2018-04-09T07:06:33.409Z,12.6
2018-04-09T07:11:35.160Z,12.7
2018-04-09T07:16:34.166Z,12.7
2018-04-09T07:21:44.220Z,12.7
2018-04-09T07:26:45.180Z,12.8
2018-04-09T07:31:46.182Z,13.1
2018-04-09T07:36:44.126Z,13.7
2018-04-09T07:41:45.126Z,14
2018-04-09T07:46:44.071Z,14.1
2018-04-09T07:51:58.155Z,14.1
2018-04-09T07:56:55.119Z,14.3
2018-04-09T08:01:56.080Z,15
2018-04-09T08:06:59.075Z,15.7
2018-04-09T08:11:58.092Z,15.9
2018-04-09T08:16:59.028Z,16.2
2018-04-09T08:22:14.158Z,16.4
2018-04-09T08:27:13.177Z,16.4
2018-04-09T08:32:14.103Z,16.6
2018-04-09T08:37:15.078Z,16.9
2018-04-09T08:42:14.042Z,17
2018-04-09T08:47:31.197Z,17.3
2018-04-09T08:52:31.167Z,17.5
2018-04-09T08:57:31.133Z,17.4
2018-04-09T09:02:37.153Z,17.9
2018-04-09T09:07:40.141Z,18
2018-04-09T09:12:37.102Z,17.9
2018-04-09T09:17:51.234Z,18.6
2018-04-09T09:22:55.631Z,18.8
2018-04-09T09:27:51.162Z,18.9
2018-04-09T09:32:50.156Z,19.1
2018-04-09T09:37:50.087Z,19.2
2018-04-09T09:42:51.377Z,19.3
2018-04-09T09:48:02.123Z,19.6
2018-04-09T09:53:01.099Z,19.7
2018-04-09T09:58:02.068Z,19.9
2018-04-09T10:03:03.053Z,19.6
2018-04-09T10:08:02.026Z,19.8
2018-04-09T10:13:02.009Z,20.3
2018-04-09T10:18:03.965Z,20.7
2018-04-09T10:23:15.063Z,21.1
2018-04-09T10:28:14.035Z,21.4
2018-04-09T10:33:14.008Z,21.4
2018-04-09T10:38:14.974Z,21.6
2018-04-09T10:43:13.952Z,21.5
2018-04-09T10:48:14.909Z,21.2
2018-04-09T10:53:23.964Z,21.5
2018-04-09T10:58:21.944Z,21.8
2018-04-09T11:03:21.905Z,21.8
2018-04-09T11:08:25.901Z,22.1
2018-04-09T11:13:23.873Z,22.4
2018-04-09T11:18:24.871Z,22.9
2018-04-09T11:23:25.822Z,23.2
2018-04-09T11:28:38.944Z,23.6
2018-04-09T11:33:38.904Z,23.7
2018-04-09T11:38:40.799Z,23.9
2018-04-09T11:43:38.838Z,24.2
2018-04-09T11:48:39.847Z,24.5
2018-04-09T11:53:38.789Z,24.7
2018-04-09T11:58:47.861Z,24.8
2018-04-09T12:03:48.812Z,24.6
2018-04-09T12:08:47.843Z,24.7
2018-04-09T12:13:47.772Z,24.9
2018-04-09T12:18:48.725Z,25.1
2018-04-09T12:23:47.715Z,25.4
2018-04-09T12:29:04.842Z,25.5
2018-04-09T12:34:04.821Z,25.4
2018-04-09T12:39:04.819Z,25.5
2018-04-09T12:44:04.775Z,24.8
2018-04-09T12:49:05.727Z,24.7
2018-04-09T12:54:04.700Z,24.5
2018-04-09T12:59:05.661Z,24.9
2018-04-09T13:04:19.878Z,24.7
2018-04-09T13:09:19.768Z,24.8
2018-04-09T13:14:20.742Z,24.7
2018-04-09T13:19:19.767Z,24.5
2018-04-09T13:24:19.661Z,24.4
2018-04-09T13:29:19.129Z,24.7
2018-04-09T13:34:33.745Z,24.9
2018-04-09T13:39:35.736Z,25.1
2018-04-09T13:44:33.685Z,25.3
2018-04-09T13:49:33.108Z,25.4
2018-04-09T13:54:34.650Z,25.4
2018-04-09T13:59:33.609Z,25.5
2018-04-09T14:04:43.677Z,25.4
2018-04-09T14:09:44.656Z,25.3
2018-04-09T14:14:46.620Z,24.9
2018-04-09T14:19:48.652Z,24.6
2018-04-09T14:24:47.627Z,24.1
2018-04-09T14:29:48.572Z,24.3
2018-04-09T14:34:58.637Z,24.1
2018-04-09T14:39:56.617Z,24.2
2018-04-09T14:44:57.615Z,24.3
2018-04-09T14:49:57.548Z,24.6
2018-04-09T14:54:57.528Z,24.8
2018-04-09T15:00:18.687Z,24.6
2018-04-09T15:05:16.712Z,24.4
2018-04-09T15:10:17.640Z,24.5
2018-04-09T15:15:16.655Z,24.5
2018-04-09T15:20:17.567Z,24.4
2018-04-09T15:25:34.725Z,24.4
2018-04-09T15:30:35.681Z,24.2
2018-04-09T15:35:34.692Z,24.1
2018-04-09T15:40:34.651Z,24.1
2018-04-09T15:45:36.621Z,23.9
2018-04-09T15:50:34.565Z,23.8
2018-04-09T15:55:43.611Z,23.7
2018-04-09T16:00:41.616Z,23.7
2018-04-09T16:05:40.879Z,23.5
2018-04-09T16:10:43.518Z,23.2
2018-04-09T16:15:41.531Z,23.1
2018-04-09T16:20:42.470Z,22.8
2018-04-09T16:25:52.535Z,22.7
2018-04-09T16:30:51.504Z,22.4
2018-04-09T16:35:51.483Z,22.3
2018-04-09T16:40:52.433Z,22.2
2018-04-09T16:45:51.423Z,22.1
2018-04-09T16:50:51.008Z,21.9
2018-04-09T16:56:10.579Z,21.6
2018-04-09T17:01:10.521Z,21.4
2018-04-09T17:06:10.502Z,21.2
2018-04-09T17:11:10.459Z,21.1
2018-04-09T17:16:12.456Z,21
2018-04-09T17:21:29.584Z,20.6
2018-04-09T17:26:27.598Z,20.4
2018-04-09T17:31:28.541Z,20.2
2018-04-09T17:36:30.635Z,20.1
2018-04-09T17:41:28.481Z,19.7
2018-04-09T17:46:29.464Z,19.6
2018-04-09T17:51:38.524Z,19.4
2018-04-09T17:56:37.483Z,19.3
2018-04-09T18:01:37.065Z,19.1
2018-04-09T18:06:40.432Z,18.9
2018-04-09T18:11:39.396Z,18.7
2018-04-09T18:16:39.400Z,18.6
2018-04-09T18:21:44.413Z,18.4
2018-04-09T18:26:44.372Z,18.1
2018-04-09T18:31:48.359Z,17.6
2018-04-09T18:36:50.366Z,17.5
2018-04-09T18:41:53.345Z,17.3
2018-04-09T18:46:51.365Z,16.9
2018-04-09T18:52:05.555Z,16.7
2018-04-09T18:57:03.414Z,16.5
2018-04-09T19:02:04.345Z,16.4
2018-04-09T19:07:07.348Z,16.3
2018-04-09T19:12:08.330Z,16.2
2018-04-09T19:17:07.323Z,16.1
2018-04-09T19:22:07.208Z,15.9
2018-04-09T19:27:13.366Z,15.8
2018-04-09T19:32:13.290Z,15.5
2018-04-09T19:37:15.285Z,15.4
2018-04-09T19:42:18.188Z,15.3
2018-04-09T19:47:16.232Z,15
2018-04-09T19:52:17.201Z,14.9
2018-04-09T19:57:16.218Z,14.8
2018-04-09T20:02:30.284Z,14.7
2018-04-09T20:07:27.978Z,14.5
2018-04-09T20:12:28.176Z,14.5
2018-04-09T20:17:27.221Z,14.4
2018-04-09T20:22:28.145Z,14.2
2018-04-09T20:27:28.119Z,14.1
2018-04-09T20:32:42.233Z,13.9
2018-04-09T20:37:42.194Z,13.7
2018-04-09T20:42:44.190Z,13.7
2018-04-09T20:47:42.082Z,13.6
2018-04-09T20:52:44.129Z,13.4
2018-04-09T20:57:42.080Z,13.4
2018-04-09T21:02:56.165Z,13.2
2018-04-09T21:07:54.147Z,13
2018-04-09T21:12:55.128Z,13
2018-04-09T21:17:56.737Z,13
2018-04-09T21:22:55.048Z,12.7
2018-04-09T21:27:56.028Z,12.7
2018-04-09T21:33:12.588Z,12.7
2018-04-09T21:38:10.157Z,12.5
2018-04-09T21:43:11.108Z,12.5
2018-04-09T21:48:14.096Z,12.5
2018-04-09T21:53:12.077Z,12.4
2018-04-09T21:58:13.016Z,12.2
2018-04-09T22:03:28.159Z,12.2
2018-04-09T22:08:27.109Z,12
2018-04-09T22:13:27.091Z,12.1
2018-04-09T22:18:30.094Z,11.8
2018-04-09T22:23:29.044Z,11.8
2018-04-09T22:28:29.015Z,12
2018-04-09T22:33:39.073Z,11.9
2018-04-09T22:38:37.043Z,12
2018-04-09T22:43:38.024Z,12
2018-04-09T22:48:36.998Z,12
2018-04-09T22:53:36.955Z,11.9
2018-04-09T22:58:37.938Z,12
2018-04-09T23:03:55.074Z,12.1
2018-04-09T23:08:53.038Z,12
2018-04-09T23:13:54.012Z,12
2018-04-09T23:18:55.997Z,12
2018-04-09T23:23:55.963Z,12.1
2018-04-09T23:28:55.943Z,12.1
2018-04-09T23:34:04.990Z,12.1
2018-04-09T23:39:02.953Z,12.1
2018-04-09T23:44:02.927Z,12.2
2018-04-09T23:49:07.956Z,12.2
2018-04-09T23:54:09.937Z,12.1
2018-04-09T23:59:07.909Z,12.1
